Time;durP1;ratioP1;P1;durP2;ratioP2;P2;SDS_P1;SDS_P2;PMS_P1;PMS_P2;Temp;Humidity;BMP_temperature;BMP_pressure;BME280_temperature;BME280_humidity;BME280_pressure;Samples;Min_cycle;Max_cycle;Signal;HPM_P1;HPM_P2
2022/04/20 00:00:09;;;;;;;4.67;4.07;;;;;;;14.26;32.41;97105.91;5077137;28;20263;-71
2022/04/20 00:02:34;;;;;;;4.87;4.00;;;;;;;14.27;32.51;97104.94;5071567;28;20182;-72
2022/04/20 00:05:00;;;;;;;4.83;3.80;;;;;;;14.23;32.92;97103.66;5071561;28;20677;-71
2022/04/20 00:07:26;;;;;;;4.20;3.70;;;;;;;14.27;33.17;97109.38;5071538;28;20189;-71
2022/04/20 00:09:51;;;;;;;9.40;3.90;;;;;;;14.39;32.88;97109.75;5076294;28;20266;-71
2022/04/20 00:12:17;;;;;;;8.07;4.77;;;;;;;14.24;33.56;97100.00;5074323;28;20989;-73
2022/04/20 00:14:42;;;;;;;7.77;4.57;;;;;;;14.37;33.33;97101.22;5070977;28;20233;-71
2022/04/20 00:17:08;;;;;;;4.40;3.93;;;;;;;14.35;33.63;97097.97;5078322;28;20182;-70
2022/04/20 00:19:33;;;;;;;4.60;4.00;;;;;;;14.28;33.93;97097.84;5082003;28;20653;-71
2022/04/20 00:21:59;;;;;;;8.80;4.50;;;;;;;14.21;33.79;97095.09;5085325;28;20186;-71
2022/04/20 00:24:24;;;;;;;6.30;4.60;;;;;;;14.27;34.40;97097.03;5071961;28;20213;-71
2022/04/20 00:26:50;;;;;;;5.63;4.67;;;;;;;14.39;34.14;97092.16;5086343;28;20277;-71
2022/04/20 00:29:15;;;;;;;6.03;4.83;;;;;;;14.46;33.91;97094.88;5070544;28;20186;-72
2022/04/20 00:31:41;;;;;;;5.20;4.70;;;;;;;14.32;34.22;97096.47;5083203;28;20239;-70
2022/04/20 00:34:06;;;;;;;7.17;4.80;;;;;;;14.24;34.46;97094.72;5075102;28;20253;-71
2022/04/20 00:36:32;;;;;;;5.67;5.17;;;;;;;14.10;34.79;97106.88;5070368;28;20205;-71
2022/04/20 00:38:58;;;;;;;5.37;4.70;;;;;;;14.02;35.02;97100.84;5071082;28;20207;-70
2022/04/20 00:41:24;;;;;;;7.03;5.20;;;;;;;13.88;35.41;97105.09;5069934;28;20182;-70
2022/04/20 00:43:49;;;;;;;6.03;5.07;;;;;;;13.95;35.55;97101.56;5069378;28;20509;-71
2022/04/20 00:46:15;;;;;;;8.10;4.80;;;;;;;14.10;35.21;97108.72;5079099;28;20665;-70
2022/04/20 00:48:41;;;;;;;5.90;4.60;;;;;;;14.08;35.23;97106.22;5062174;28;20553;-70
2022/04/20 00:51:07;;;;;;;7.00;5.53;;;;;;;14.05;35.33;97100.50;5069461;28;20425;-71
2022/04/20 00:53:33;;;;;;;9.27;5.23;;;;;;;14.08;35.29;97100.97;5072751;28;20468;-69
2022/04/20 00:55:58;;;;;;;5.30;4.80;;;;;;;14.06;35.38;97104.78;5074132;28;20185;-69
2022/04/20 00:58:24;;;;;;;6.17;5.57;;;;;;;13.95;35.91;97092.84;5068347;28;20268;-69
2022/04/20 01:00:49;;;;;;;6.03;5.30;;;;;;;13.98;35.83;97101.22;5073864;28;20182;-69
2022/04/20 01:03:15;;;;;;;10.00;5.03;;;;;;;14.02;35.35;97095.59;5076517;28;20190;-70
2022/04/20 01:05:40;;;;;;;5.00;4.50;;;;;;;13.97;35.61;97098.75;5073686;28;20182;-70
2022/04/20 01:08:06;;;;;;;8.37;4.70;;;;;;;13.79;36.03;97099.03;5082153;28;20225;-70
2022/04/20 01:10:32;;;;;;;6.50;4.53;;;;;;;13.80;36.15;97098.06;5088828;28;20199;-70
2022/04/20 01:12:58;;;;;;;7.27;4.70;;;;;;;13.78;36.39;97098.25;5073859;28;20182;-69
2022/04/20 01:15:23;;;;;;;5.63;4.87;;;;;;;13.78;36.40;97092.13;5073390;28;20444;-71
2022/04/20 01:17:49;;;;;;;5.63;4.33;;;;;;;13.78;36.46;97090.34;5076850;28;20706;-69
2022/04/20 01:20:15;;;;;;;5.20;4.70;;;;;;;13.75;36.17;97092.47;5085495;28;20206;-71
2022/04/20 01:22:41;;;;;;;5.97;4.10;;;;;;;13.70;36.96;97089.56;5072231;28;20243;-72
2022/04/20 01:25:07;;;;;;;7.00;4.57;;;;;;;13.49;37.22;97083.94;5074155;28;20536;-69
2022/04/20 01:27:34;;;;;;;10.50;5.40;;;;;;;13.37;37.05;97088.72;5074258;28;20178;-71
2022/04/20 01:29:59;;;;;;;5.30;4.57;;;;;;;13.20;37.72;97084.56;5079581;28;20987;-72
2022/04/20 01:32:25;;;;;;;5.10;4.53;;;;;;;13.28;37.85;97088.97;5075243;28;20519;-71
2022/04/20 01:34:52;;;;;;;6.53;5.00;;;;;;;13.17;37.81;97085.69;5077458;28;20616;-73
2022/04/20 01:37:18;;;;;;;5.03;4.53;;;;;;;13.03;38.09;97097.78;5074050;28;20193;-71
2022/04/20 01:39:43;;;;;;;5.13;4.63;;;;;;;12.94;38.00;97098.81;5073128;28;20555;-71
2022/04/20 01:42:10;;;;;;;7.90;4.30;;;;;;;13.06;38.26;97091.34;5073364;28;20486;-71
2022/04/20 01:44:36;;;;;;;5.93;4.70;;;;;;;13.09;38.11;97088.38;5081429;28;20310;-70
2022/04/20 01:47:02;;;;;;;4.63;4.23;;;;;;;13.05;38.34;97085.28;5081828;28;20456;-71
2022/04/20 01:49:28;;;;;;;6.53;4.87;;;;;;;13.05;38.31;97087.06;5075366;28;20214;-70
2022/04/20 01:51:54;;;;;;;5.03;4.50;;;;;;;12.84;38.46;97079.78;5071479;28;20269;-71
2022/04/20 01:54:20;;;;;;;7.07;4.73;;;;;;;12.73;38.95;97079.13;5072678;28;20202;-72
2022/04/20 01:56:47;;;;;;;7.83;4.97;;;;;;;12.89;39.00;97087.97;5072129;28;20488;-71
2022/04/20 01:59:13;;;;;;;5.10;4.60;;;;;;;12.81;38.87;97086.16;5068669;28;21054;-71
2022/04/20 02:04:23;;;;;;;5.00;4.50;;;;;;;12.73;38.96;97092.28;5084576;28;20213;-71
2022/04/20 02:06:48;;;;;;;8.13;4.53;;;;;;;12.48;39.74;97093.31;5074625;28;20429;-72
2022/04/20 02:09:14;;;;;;;5.17;4.60;;;;;;;12.34;39.85;97094.81;5072624;28;20544;-71
2022/04/20 02:11:39;;;;;;;4.50;4.17;;;;;;;12.36;40.14;97087.59;5072561;28;20179;-72
2022/04/20 02:14:05;;;;;;;5.53;5.03;;;;;;;12.29;39.83;97101.38;5072586;28;20302;-74
2022/04/20 02:16:31;;;;;;;5.73;5.07;;;;;;;12.34;39.86;97090.41;5074828;28;20688;-72
2022/04/20 02:18:56;;;;;;;7.90;5.10;;;;;;;12.27;40.19;97092.03;5078570;28;20217;-70
2022/04/20 02:21:22;;;;;;;8.80;5.40;;;;;;;12.14;40.17;97098.63;5072140;28;20664;-71
2022/04/20 02:23:48;;;;;;;8.90;5.57;;;;;;;12.17;40.23;97094.03;5072410;28;20653;-72
2022/04/20 02:26:13;;;;;;;5.77;4.90;;;;;;;12.09;40.12;97093.03;5072470;28;20420;-71
2022/04/20 02:28:39;;;;;;;6.10;5.20;;;;;;;12.15;40.43;97094.19;5066482;28;20187;-72
2022/04/20 02:31:04;;;;;;;9.10;5.60;;;;;;;12.14;40.18;97095.19;5073082;28;20225;-71
2022/04/20 02:33:30;;;;;;;5.47;4.80;;;;;;;12.11;40.24;97093.69;5078785;28;20285;-72
2022/04/20 02:35:57;;;;;;;6.97;5.07;;;;;;;12.05;40.47;97096.16;5082770;28;20190;-72
2022/04/20 02:38:23;;;;;;;7.40;5.20;;;;;;;12.08;40.51;97099.28;5082109;28;20186;-72
2022/04/20 02:40:50;;;;;;;7.53;5.30;;;;;;;12.11;40.46;97093.69;5085977;28;20515;-72
2022/04/20 02:43:15;;;;;;;5.60;5.07;;;;;;;12.08;40.43;97101.91;5082724;28;20201;-71
2022/04/20 02:45:41;;;;;;;8.10;5.00;;;;;;;12.07;40.42;97092.38;5068748;28;20421;-71
2022/04/20 02:48:07;;;;;;;6.80;5.17;;;;;;;12.07;40.23;97094.19;5087343;28;20190;-72
2022/04/20 02:50:32;;;;;;;7.67;5.27;;;;;;;11.87;40.55;97094.47;5079409;28;20261;-73
2022/04/20 02:52:58;;;;;;;6.40;5.40;;;;;;;11.80;40.81;97096.94;5083412;28;20228;-70
2022/04/20 02:55:24;;;;;;;5.90;5.30;;;;;;;11.84;40.93;97089.53;5089571;28;20216;-71
2022/04/20 02:57:49;;;;;;;6.83;5.27;;;;;;;11.78;40.67;97093.66;5083777;28;20276;-72
2022/04/20 03:00:15;;;;;;;6.40;5.33;;;;;;;11.56;41.41;97091.66;5090384;28;20221;-71
2022/04/20 03:02:41;;;;;;;9.03;5.90;;;;;;;11.56;41.42;97099.53;5087466;28;20179;-71
2022/04/20 03:05:07;;;;;;;5.90;5.30;;;;;;;11.47;41.41;97096.06;5088375;28;20209;-71
2022/04/20 03:07:32;;;;;;;7.27;5.50;;;;;;;11.47;41.60;97096.06;5072357;28;20537;-71
2022/04/20 03:09:58;;;;;;;13.10;6.27;;;;;;;11.42;41.76;97095.69;5089954;28;20432;-72
2022/04/20 03:12:23;;;;;;;7.80;6.33;;;;;;;11.34;42.15;97092.09;5077337;28;20265;-70
2022/04/20 03:14:51;;;;;;;8.17;5.87;;;;;;;11.44;41.57;97088.50;5076459;28;20205;-74
2022/04/20 03:17:16;;;;;;;5.07;4.67;;;;;;;11.44;41.73;97106.88;5079096;28;20189;-73
2022/04/20 03:19:42;;;;;;;8.73;5.80;;;;;;;11.41;41.47;97096.69;5079988;28;20465;-71
2022/04/20 03:22:07;;;;;;;5.70;5.10;;;;;;;11.31;41.87;97097.66;5082744;28;20182;-70
2022/04/20 03:24:33;;;;;;;6.00;5.37;;;;;;;11.26;41.79;97096.50;5071143;28;20704;-71
2022/04/20 03:26:58;;;;;;;13.57;5.00;;;;;;;11.17;42.19;97106.97;5068087;28;20197;-71
2022/04/20 03:29:24;;;;;;;6.53;5.40;;;;;;;11.15;42.25;97102.88;5070151;28;20185;-71
2022/04/20 03:31:49;;;;;;;6.77;5.37;;;;;;;11.04;42.46;97107.38;5071977;28;20645;-72
2022/04/20 03:34:15;;;;;;;7.10;5.57;;;;;;;10.94;42.61;97111.94;5087955;28;20190;-71
2022/04/20 03:36:40;;;;;;;6.37;5.30;;;;;;;10.87;42.79;97105.69;5082676;28;20650;-72
2022/04/20 03:39:06;;;;;;;6.03;4.83;;;;;;;10.96;42.46;97109.97;5085115;28;20202;-71
2022/04/20 03:41:31;;;;;;;12.37;5.77;;;;;;;10.98;42.52;97101.94;5084039;28;20200;-74
2022/04/20 03:43:57;;;;;;;5.83;5.17;;;;;;;10.82;42.82;97098.28;5084444;28;20332;-71
2022/04/20 03:46:24;;;;;;;7.10;5.93;;;;;;;10.80;43.55;97100.25;5072088;28;20194;-74
2022/04/20 03:48:50;;;;;;;6.30;5.63;;;;;;;10.75;43.08;97099.88;5099515;28;20175;-72
2022/04/20 03:51:16;;;;;;;7.93;5.47;;;;;;;10.81;42.97;97098.44;5099112;28;20423;-69
2022/04/20 03:53:41;;;;;;;7.00;6.30;;;;;;;10.75;43.14;97097.25;5091012;28;20447;-71
2022/04/20 03:56:07;;;;;;;8.43;5.57;;;;;;;10.77;43.13;97091.88;5074653;28;20209;-72
2022/04/20 03:58:32;;;;;;;8.87;5.80;;;;;;;10.42;43.75;97099.69;5089672;28;20247;-75
2022/04/20 04:00:58;;;;;;;10.77;5.93;;;;;;;10.47;43.78;97094.81;5087335;28;20210;-71
2022/04/20 04:03:24;;;;;;;7.67;5.60;;;;;;;10.53;43.38;97104.69;5075693;28;20257;-71
2022/04/20 04:05:50;;;;;;;8.77;5.37;;;;;;;10.62;43.87;97097.69;5083774;28;20511;-70
2022/04/20 04:08:15;;;;;;;6.87;5.27;;;;;;;10.66;43.30;97098.19;5090095;28;20173;-73
2022/04/20 04:10:41;;;;;;;6.07;5.50;;;;;;;10.63;43.42;97088.03;5090576;28;20186;-71
2022/04/20 04:13:06;;;;;;;7.80;6.03;;;;;;;10.52;43.26;97102.22;5086017;28;20186;-72
2022/04/20 04:15:33;;;;;;;8.37;5.87;;;;;;;10.56;43.58;97093.06;5072538;28;20282;-71
2022/04/20 04:17:59;;;;;;;6.53;5.93;;;;;;;10.66;43.29;97088.53;5085840;28;20686;-72
2022/04/20 04:20:28;;;;;;;7.27;6.10;;;;;;;10.60;43.23;97089.97;5089761;28;20459;-71
2022/04/20 04:22:55;;;;;;;7.63;6.50;;;;;;;10.48;43.79;97096.44;5082939;28;20177;-71
2022/04/20 04:25:20;;;;;;;10.37;6.13;;;;;;;10.60;43.15;97089.97;5087770;28;20928;-71
2022/04/20 04:27:47;;;;;;;6.03;5.43;;;;;;;10.52;43.56;97089.94;5080303;28;20486;-71
2022/04/20 04:30:13;;;;;;;6.33;5.70;;;;;;;10.56;43.19;97096.53;5074487;28;20223;-71
2022/04/20 04:32:38;;;;;;;7.60;5.80;;;;;;;10.57;43.35;97098.16;5096578;28;20823;-70
2022/04/20 04:35:04;;;;;;;8.60;6.10;;;;;;;10.41;43.35;97098.06;5091567;28;20447;-71
2022/04/20 04:37:30;;;;;;;8.47;7.33;;;;;;;10.49;43.43;97092.03;5087165;28;20231;-70
2022/04/20 04:39:56;;;;;;;15.23;11.50;;;;;;;10.23;43.75;97101.50;5103110;28;20801;-72
2022/04/20 04:42:22;;;;;;;8.47;7.17;;;;;;;10.33;43.62;97103.22;5084224;28;20182;-72
2022/04/20 04:44:47;;;;;;;9.93;6.33;;;;;;;10.27;43.68;97105.47;5086797;28;20471;-70
2022/04/20 04:49:58;;;;;;;9.43;6.13;;;;;;;10.22;44.16;97107.69;5078857;28;20177;-70
2022/04/20 04:52:23;;;;;;;8.20;5.60;;;;;;;10.20;44.05;97107.06;5073405;28;20519;-71
2022/04/20 04:54:49;;;;;;;10.87;6.93;;;;;;;10.05;44.68;97105.94;5098160;28;20977;-71
2022/04/20 04:57:14;;;;;;;13.10;9.00;;;;;;;10.23;44.18;97101.50;5061342;28;20188;-71
2022/04/20 04:59:40;;;;;;;12.57;9.23;;;;;;;10.28;44.40;97106.25;5058929;28;20802;-71
2022/04/20 05:02:07;;;;;;;18.63;14.30;;;;;;;10.37;44.54;97109.78;5073358;28;20190;-71
2022/04/20 05:04:34;;;;;;;28.00;19.27;;;;;;;10.32;44.26;97117.28;5074718;28;20439;-70
2022/04/20 05:07:00;;;;;;;10.23;8.17;;;;;;;10.25;44.68;97112.63;5059889;28;20420;-72
2022/04/20 05:09:26;;;;;;;15.10;6.23;;;;;;;10.36;44.02;97108.13;5089525;28;20442;-72
2022/04/20 05:11:51;;;;;;;13.83;7.10;;;;;;;10.41;44.72;97108.53;5081257;28;20208;-74
2022/04/20 05:14:17;;;;;;;7.23;6.50;;;;;;;10.49;44.36;97113.00;5090185;28;20519;-72
2022/04/20 05:16:43;;;;;;;8.93;7.17;;;;;;;10.51;44.54;97114.50;5072308;28;20249;-70
2022/04/20 05:19:09;;;;;;;9.40;7.80;;;;;;;10.57;44.60;97116.50;5033148;28;20218;-71
2022/04/20 05:21:35;;;;;;;8.10;6.73;;;;;;;10.56;44.09;97117.47;5080283;28;20178;-70
2022/04/20 05:24:00;;;;;;;8.90;6.50;;;;;;;10.66;44.50;97108.69;5088617;28;20458;-73
2022/04/20 05:26:26;;;;;;;7.23;6.53;;;;;;;10.75;43.87;97105.97;5099723;28;20174;-72
2022/04/20 05:28:52;;;;;;;12.80;7.17;;;;;;;10.75;44.25;97107.75;5061139;28;20529;-70
2022/04/20 05:31:18;;;;;;;14.10;7.70;;;;;;;10.82;44.17;97114.03;5056440;28;20218;-72
2022/04/20 05:33:44;;;;;;;9.77;6.43;;;;;;;10.94;44.08;97111.94;5071000;28;20447;-73
2022/04/20 05:36:10;;;;;;;14.33;10.87;;;;;;;11.05;43.82;97110.84;5073039;28;20443;-72
2022/04/20 05:44:04;;;;;;;23.87;10.93;;;;;;;11.34;42.79;97101.78;5075115;28;20444;-72
2022/04/20 05:46:30;;;;;;;11.57;9.40;;;;;;;11.53;42.38;97106.72;5081201;28;20444;-71
2022/04/20 05:48:56;;;;;;;10.73;8.23;;;;;;;11.67;41.71;97112.34;5085384;28;20166;-72
2022/04/20 05:51:21;;;;;;;13.33;8.63;;;;;;;11.67;41.64;97109.72;5076627;28;20447;-71
2022/04/20 05:53:47;;;;;;;13.93;6.57;;;;;;;11.66;41.35;97116.75;5081605;28;20202;-70
2022/04/20 05:56:12;;;;;;;7.83;6.00;;;;;;;11.83;41.21;97122.88;5069315;28;20174;-71
2022/04/20 05:58:37;;;;;;;8.00;6.67;;;;;;;11.79;40.63;97120.72;5072892;28;20790;-73
2022/04/20 06:01:03;;;;;;;6.67;5.93;;;;;;;11.89;40.72;97118.78;5082557;28;20208;-71
2022/04/20 06:03:28;;;;;;;9.00;6.60;;;;;;;12.10;40.60;97115.69;5074167;28;20668;-72
2022/04/20 06:05:54;;;;;;;12.83;5.87;;;;;;;12.22;39.97;97115.38;5065156;28;20228;-69
2022/04/20 06:08:19;;;;;;;10.43;6.70;;;;;;;12.46;39.89;97121.59;5066165;28;20731;-70
2022/04/20 06:10:46;;;;;;;7.33;6.00;;;;;;;12.59;39.53;97116.66;5064544;28;20182;-69
2022/04/20 06:13:11;;;;;;;7.60;6.20;;;;;;;12.72;39.15;97116.13;5065012;28;20183;-69
2022/04/20 06:15:38;;;;;;;11.73;6.30;;;;;;;12.84;38.91;97116.59;5066929;28;20762;-68
2022/04/20 06:18:04;;;;;;;8.67;5.73;;;;;;;13.06;39.65;97123.75;5064237;28;20175;-70
2022/04/20 06:20:29;;;;;;;11.30;5.90;;;;;;;13.36;38.92;97120.50;5064498;28;20459;-69
2022/04/20 06:22:55;;;;;;;7.50;5.70;;;;;;;13.50;37.87;97124.22;5068379;28;20210;-70
2022/04/20 06:25:20;;;;;;;8.13;5.70;;;;;;;13.62;37.00;97112.31;5064143;28;20207;-70
2022/04/20 06:27:46;;;;;;;5.30;4.80;;;;;;;13.77;36.74;97119.47;5063016;28;20189;-70
2022/04/20 06:30:11;;;;;;;6.20;5.37;;;;;;;13.93;36.04;97118.53;5069843;28;20193;-71
2022/04/20 06:32:37;;;;;;;8.33;6.00;;;;;;;14.04;35.80;97115.50;5082144;28;20652;-71
2022/04/20 06:35:03;;;;;;;4.60;4.20;;;;;;;14.07;34.42;97120.41;5092483;28;20239;-70
2022/04/20 06:37:28;;;;;;;5.83;3.73;;;;;;;13.93;33.12;97113.25;5074538;28;20296;-70
2022/04/20 06:39:56;;;;;;;4.50;4.10;;;;;;;13.89;33.34;97125.16;5070679;28;20547;-70
2022/04/20 06:42:22;;;;;;;5.33;4.37;;;;;;;14.03;32.54;97123.56;5070926;28;20182;-69
2022/04/20 06:44:48;;;;;;;4.43;4.03;;;;;;;14.19;32.95;97126.09;5072251;28;20535;-70
2022/04/20 06:47:13;;;;;;;4.73;4.27;;;;;;;13.81;32.83;97115.50;5071777;28;20515;-70
2022/04/20 06:49:39;;;;;;;6.63;4.50;;;;;;;14.11;33.00;97120.91;5073394;28;20167;-69
2022/04/20 07:00:17;;;;;;;5.30;4.43;;;;;;;13.92;33.54;97122.19;5077332;28;20471;-70
2022/04/20 07:02:44;;;;;;;5.97;4.13;;;;;;;14.06;33.03;97112.69;5082838;28;20416;-69
2022/04/20 07:05:09;;;;;;;4.30;3.90;;;;;;;14.31;33.33;97115.13;5090644;28;20454;-69
2022/04/20 07:07:35;;;;;;;5.60;4.00;;;;;;;14.46;32.70;97113.34;5079450;28;20432;-69
2022/04/20 07:10:02;;;;;;;4.30;4.00;;;;;;;14.41;32.31;97113.88;5071707;28;20178;-69
2022/04/20 07:12:28;;;;;;;4.43;4.10;;;;;;;14.36;32.41;97107.50;5079903;28;20420;-70
2022/04/20 07:14:53;;;;;;;7.47;4.03;;;;;;;14.62;32.22;97106.28;5071677;28;20449;-70
2022/04/20 07:17:19;;;;;;;8.33;3.97;;;;;;;14.80;32.46;97106.75;5071376;28;20182;-69
2022/04/20 07:19:44;;;;;;;4.57;4.17;;;;;;;14.96;31.90;97099.66;5070851;28;20210;-69
2022/04/20 07:22:10;;;;;;;5.10;4.20;;;;;;;14.86;31.58;97098.13;5071701;28;20538;-70
2022/04/20 07:24:35;;;;;;;4.70;4.30;;;;;;;14.86;31.35;97092.84;5070328;28;20252;-70
2022/04/20 07:27:01;;;;;;;6.30;4.50;;;;;;;14.81;31.50;97100.47;5069324;28;20214;-69
2022/04/20 07:29:26;;;;;;;11.00;4.50;;;;;;;14.98;31.67;97095.84;5072619;28;20174;-70
2022/04/20 07:31:52;;;;;;;6.10;4.57;;;;;;;15.03;31.10;97097.91;5079889;28;20183;-70
2022/04/20 07:34:17;;;;;;;6.33;4.33;;;;;;;14.62;31.09;97122.09;5068392;28;20205;-70
2022/04/20 07:36:43;;;;;;;5.67;4.20;;;;;;;14.87;31.53;97094.47;5076056;28;20220;-69
2022/04/20 07:39:08;;;;;;;5.63;4.47;;;;;;;15.21;31.21;97094.91;5082978;28;20198;-70
2022/04/20 07:41:34;;;;;;;10.53;3.97;;;;;;;15.49;31.11;97102.97;5071122;28;20257;-70
2022/04/20 07:43:59;;;;;;;11.10;4.50;;;;;;;15.50;30.27;97101.94;5071284;28;20545;-70
2022/04/20 07:46:25;;;;;;;4.40;4.00;;;;;;;15.62;30.08;97106.75;5069842;28;20719;-70
2022/04/20 07:48:50;;;;;;;7.93;4.50;;;;;;;15.72;30.33;97107.25;5072850;28;20167;-70
2022/04/20 07:51:17;;;;;;;4.97;4.57;;;;;;;15.62;30.50;97104.91;5079513;28;20186;-71
2022/04/20 07:53:43;;;;;;;6.23;4.50;;;;;;;15.58;30.27;97116.06;5071592;28;20194;-70
2022/04/20 07:56:09;;;;;;;5.37;4.67;;;;;;;15.61;30.24;97118.31;5072884;28;20447;-69
2022/04/20 07:58:34;;;;;;;4.20;3.80;;;;;;;15.94;30.16;97113.38;5068641;28;20186;-70
2022/04/20 08:01:00;;;;;;;5.30;4.80;;;;;;;15.91;30.22;97118.25;5072642;28;20428;-71
2022/04/20 08:03:25;;;;;;;7.33;4.93;;;;;;;16.08;30.57;97119.63;5074951;28;20177;-70
2022/04/20 08:05:53;;;;;;;8.03;4.17;;;;;;;16.35;29.76;97111.94;5070339;28;20633;-69
2022/04/20 08:08:20;;;;;;;6.33;4.20;;;;;;;16.46;29.67;97105.28;5071281;28;20650;-70
2022/04/20 08:10:46;;;;;;;4.80;4.40;;;;;;;16.68;29.29;97110.53;5071277;28;20416;-70
2022/04/20 08:15:56;;;;;;;9.47;4.83;;;;;;;16.56;29.01;97112.88;5071283;28;20511;-69
2022/04/20 08:18:21;;;;;;;4.90;4.50;;;;;;;16.86;29.16;97102.09;5069628;28;20570;-71
2022/04/20 08:20:47;;;;;;;5.70;4.77;;;;;;;17.02;28.65;97093.84;5071118;28;20255;-70
2022/04/20 08:23:14;;;;;;;8.40;4.87;;;;;;;17.03;28.18;97092.84;5071097;28;20190;-69
2022/04/20 08:25:39;;;;;;;7.57;5.33;;;;;;;16.92;28.35;97096.00;5071194;28;20471;-69
2022/04/20 08:28:06;;;;;;;9.33;4.93;;;;;;;16.80;28.36;97092.28;5077976;28;20428;-69
2022/04/20 08:30:33;;;;;;;5.10;4.60;;;;;;;17.16;28.62;97096.56;5070354;28;20669;-68
2022/04/20 08:32:58;;;;;;;5.20;4.40;;;;;;;17.06;28.07;97096.13;5071356;28;20424;-72
2022/04/20 08:35:24;;;;;;;4.80;4.23;;;;;;;17.09;28.26;97101.81;5073003;28;20471;-71
2022/04/20 08:37:49;;;;;;;6.10;4.53;;;;;;;17.29;27.29;97106.41;5079233;28;20190;-71
2022/04/20 08:40:15;;;;;;;4.60;4.20;;;;;;;17.54;27.41;97098.75;5070617;28;20216;-71
2022/04/20 08:42:41;;;;;;;4.97;4.47;;;;;;;17.66;27.66;97101.63;5070573;28;20190;-70
2022/04/20 08:45:07;;;;;;;5.60;4.80;;;;;;;17.79;27.44;97100.84;5077894;28;20210;-70
2022/04/20 08:47:39;;;;;;;5.83;4.57;;;;;;;18.10;27.68;97096.84;5072299;28;20425;-70
2022/04/20 08:50:07;;;;;;;8.20;4.37;;;;;;;18.44;27.15;97102.97;5073221;28;20424;-71
2022/04/20 08:52:39;;;;;;;4.67;4.20;;;;;;;18.55;26.58;97105.00;5070916;28;20496;-69
2022/04/20 08:55:13;;;;;;;5.10;4.60;;;;;;;18.62;27.17;97090.91;5053801;28;20535;-74
2022/04/20 08:57:40;;;;;;;6.37;4.47;;;;;;;18.79;26.50;97094.75;5069026;28;20428;-71
2022/04/20 09:00:11;;;;;;;4.17;3.83;;;;;;;18.47;24.63;97105.22;5072817;28;20563;-70
2022/04/20 09:02:37;;;;;;;4.53;3.80;;;;;;;18.50;25.15;97094.19;5070847;28;20444;-69
2022/04/20 09:05:03;;;;;;;4.50;4.10;;;;;;;18.23;26.32;97090.72;5075854;28;20869;-72
2022/04/20 09:07:31;;;;;;;9.30;3.93;;;;;;;18.55;26.78;97088.25;5073377;28;20431;-71
2022/04/20 09:09:57;;;;;;;5.87;4.07;;;;;;;18.74;26.46;97089.25;5076371;28;20417;-72
2022/04/20 09:12:23;;;;;;;4.33;3.90;;;;;;;19.05;26.84;97082.44;5076404;28;20786;-72
2022/04/20 09:14:50;;;;;;;4.77;3.90;;;;;;;19.33;26.43;97081.31;5077346;28;20456;-70
2022/04/20 09:17:18;;;;;;;4.17;3.77;;;;;;;19.63;25.82;97070.16;5084486;28;20183;-71
2022/04/20 09:19:51;;;;;;;6.10;4.10;;;;;;;19.41;24.42;97082.94;5081644;28;20460;-71
2022/04/20 09:22:21;;;;;;;4.63;3.90;;;;;;;19.48;24.75;97076.56;5080528;28;20928;-72
2022/04/20 09:24:59;;;;;;;3.80;3.50;;;;;;;19.72;25.26;97071.50;5078325;28;20444;-69
2022/04/20 09:27:28;;;;;;;7.40;3.63;;;;;;;19.90;24.86;97080.66;5068214;28;20444;-70
2022/04/20 09:29:54;;;;;;;6.20;4.07;;;;;;;19.46;24.38;97081.25;5076981;28;20447;-70
2022/04/20 09:32:35;;;;;;;4.30;3.80;;;;;;;19.91;24.38;97084.94;5069636;28;20444;-72
2022/04/20 09:35:03;;;;;;;3.63;3.33;;;;;;;20.12;23.79;97075.75;5071153;28;20460;-71
2022/04/20 09:37:30;;;;;;;3.47;3.17;;;;;;;20.18;23.77;97071.41;5073184;28;20586;-70
2022/04/20 09:39:56;;;;;;;3.57;3.27;;;;;;;20.24;23.65;97073.22;5073440;28;20483;-71
2022/04/20 09:42:22;;;;;;;8.53;3.60;;;;;;;20.44;23.32;97082.88;5071921;28;21017;-70
2022/04/20 09:44:56;;;;;;;5.13;3.60;;;;;;;20.31;23.14;97081.16;5073373;28;20202;-70
2022/04/20 09:50:11;;;;;;;5.53;3.50;;;;;;;19.85;23.19;97069.78;5074661;28;20467;-70
2022/04/20 09:52:36;;;;;;;6.83;3.50;;;;;;;20.24;23.15;97073.22;5071743;28;20445;-70
2022/04/20 09:55:05;;;;;;;5.33;3.10;;;;;;;20.35;23.46;97063.72;5069601;28;20463;-69
2022/04/20 09:57:31;;;;;;;3.37;3.03;;;;;;;20.40;23.28;97066.53;5079629;28;20186;-69
2022/04/20 10:00:00;;;;;;;4.90;3.37;;;;;;;20.46;23.04;97059.50;5074994;28;20547;-70
2022/04/20 10:02:28;;;;;;;3.20;3.00;;;;;;;20.05;23.02;97054.53;5072961;28;20958;-72
2022/04/20 10:04:55;;;;;;;5.10;3.30;;;;;;;20.36;22.54;97055.50;5077088;28;20452;-70
2022/04/20 10:07:20;;;;;;;4.27;3.20;;;;;;;20.56;22.64;97054.50;5072576;28;20780;-71
2022/04/20 10:09:46;;;;;;;3.03;2.80;;;;;;;20.74;22.53;97050.22;5071569;28;20436;-69
2022/04/20 10:12:15;;;;;;;5.33;4.07;;;;;;;20.56;21.86;97054.50;5073045;28;20202;-70
2022/04/20 10:17:28;;;;;;;4.40;3.33;;;;;;;20.71;21.76;97035.53;5072669;28;20429;-72
2022/04/20 10:19:54;;;;;;;4.30;3.77;;;;;;;20.95;21.73;97047.16;5071465;28;20456;-69
2022/04/20 10:22:21;;;;;;;4.97;3.47;;;;;;;21.16;21.88;97039.75;5072552;28;20439;-70
2022/04/20 10:24:53;;;;;;;4.53;3.20;;;;;;;21.36;20.98;97046.66;5071907;28;20437;-72
2022/04/20 10:27:30;;;;;;;3.63;3.10;;;;;;;21.55;20.99;97039.44;5072586;28;20544;-69
2022/04/20 10:30:00;;;;;;;3.50;3.20;;;;;;;21.70;21.02;97049.69;5071248;28;20957;-72
2022/04/20 10:32:30;;;;;;;3.50;2.80;;;;;;;21.23;20.83;97048.44;5072330;28;20429;-72
2022/04/20 10:34:59;;;;;;;5.70;3.20;;;;;;;21.04;20.59;97037.00;5079224;28;20440;-71
2022/04/20 10:37:29;;;;;;;3.40;3.10;;;;;;;21.06;20.83;97034.09;5089962;28;20435;-70
2022/04/20 10:40:13;;;;;;;6.33;3.03;;;;;;;21.19;21.33;97028.63;5079621;28;20975;-70
2022/04/20 10:42:39;;;;;;;5.27;3.47;;;;;;;21.54;20.60;97027.13;5080064;28;20821;-71
2022/04/20 10:45:06;;;;;;;4.10;3.00;;;;;;;21.90;20.52;97028.06;5081144;28;20491;-70
2022/04/20 10:47:33;;;;;;;3.20;2.90;;;;;;;21.59;20.93;97025.44;5073095;28;20436;-69
2022/04/20 10:50:17;;;;;;;4.33;3.17;;;;;;;21.97;20.06;97019.94;5068729;28;20434;-71
2022/04/20 10:52:58;;;;;;;3.30;3.00;;;;;;;21.70;19.79;97020.38;5064985;28;20553;-69
2022/04/20 10:55:35;;;;;;;3.33;2.83;;;;;;;21.67;20.81;97020.84;5077580;28;20444;-71
2022/04/20 10:58:07;;;;;;;3.50;3.20;;;;;;;21.89;20.54;97018.44;5074835;28;20493;-70
2022/04/20 11:00:36;;;;;;;3.73;3.27;;;;;;;22.11;20.26;97018.69;5072254;28;20468;-70
2022/04/20 11:03:01;;;;;;;3.07;2.87;;;;;;;21.99;21.08;97015.19;5073780;28;20517;-69
2022/04/20 11:05:27;;;;;;;3.60;3.30;;;;;;;22.26;20.23;97012.88;5073223;28;20487;-69
2022/04/20 11:08:01;;;;;;;5.27;3.10;;;;;;;22.22;19.53;97001.06;5071778;28;20185;-70
2022/04/20 11:10:28;;;;;;;3.20;2.90;;;;;;;22.48;19.49;96999.00;5072895;28;20185;-69
2022/04/20 11:19:12;;;;;;;3.30;3.00;;;;;;;21.71;19.26;96998.00;5086382;28;20456;-70
2022/04/20 11:21:54;;;;;;;3.17;2.97;;;;;;;21.72;19.84;96987.13;5069447;28;20916;-70
2022/04/20 11:24:27;;;;;;;3.40;2.90;;;;;;;21.75;19.70;97001.84;5071716;28;20460;-70
2022/04/20 11:26:54;;;;;;;3.67;3.33;;;;;;;21.40;19.98;97003.31;5075905;28;20425;-70
2022/04/20 11:29:23;;;;;;;3.80;3.20;;;;;;;21.62;20.53;96992.16;5070979;28;20460;-72
2022/04/20 11:31:51;;;;;;;3.20;3.00;;;;;;;21.90;20.58;96983.53;5076940;28;20424;-70
2022/04/20 11:34:20;;;;;;;4.00;2.87;;;;;;;22.22;19.18;96974.38;5096563;28;20447;-71
2022/04/20 11:36:52;;;;;;;4.97;3.47;;;;;;;22.25;19.09;96985.41;5090059;28;20530;-71
2022/04/20 11:39:20;;;;;;;3.20;3.00;;;;;;;22.18;19.24;96978.56;5073784;28;20464;-70
2022/04/20 11:41:56;;;;;;;3.30;2.77;;;;;;;22.35;19.83;96974.16;5072316;28;20429;-71
2022/04/20 11:44:41;;;;;;;3.60;3.13;;;;;;;22.29;19.19;96969.72;5071755;28;20520;-71
2022/04/20 11:47:11;;;;;;;3.90;3.60;;;;;;;21.19;19.25;96972.66;5076104;28;20485;-70
2022/04/20 11:49:39;;;;;;;2.90;2.70;;;;;;;21.69;19.68;96978.75;5072120;28;20425;-69
2022/04/20 11:52:09;;;;;;;3.80;3.40;;;;;;;22.05;19.10;96974.28;5071184;28;20476;-69
2022/04/20 11:54:36;;;;;;;3.70;3.40;;;;;;;22.00;19.06;96971.47;5070356;28;20445;-69
2022/04/20 11:57:02;;;;;;;3.27;3.07;;;;;;;22.23;19.27;96971.47;5068274;28;20444;-70
2022/04/20 11:59:29;;;;;;;4.50;3.13;;;;;;;22.32;19.55;96963.09;5072531;28;20966;-70
2022/04/20 12:01:55;;;;;;;4.00;3.60;;;;;;;22.08;19.18;96971.13;5071013;28;20985;-70